sensor_id;sensor_type;location;lat;lon;timestamp;P1;durP1;ratioP1;P2;durP2;ratioP2
1837;SDS011;918;50.796;6.772;2023-07-31T00:02:13;4.40;;;3.60;;
1837;SDS011;918;50.796;6.772;2023-07-31T00:04:38;5.83;;;3.60;;
1837;SDS011;918;50.796;6.772;2023-07-31T00:07:03;4.20;;;3.37;;
1837;SDS011;918;50.796;6.772;2023-07-31T00:09:31;4.33;;;3.80;;
1837;SDS011;918;50.796;6.772;2023-07-31T00:11:56;3.93;;;3.23;;
1837;SDS011;918;50.796;6.772;2023-07-31T00:14:21;4.90;;;3.03;;
1837;SDS011;918;50.796;6.772;2023-07-31T00:16:46;3.40;;;3.07;;
1837;SDS011;918;50.796;6.772;2023-07-31T00:19:12;3.13;;;2.70;;
1837;SDS011;918;50.796;6.772;2023-07-31T00:21:37;3.30;;;2.47;;
1837;SDS011;918;50.796;6.772;2023-07-31T00:24:02;4.67;;;2.43;;
1837;SDS011;918;50.796;6.772;2023-07-31T00:26:28;3.30;;;2.20;;
1837;SDS011;918;50.796;6.772;2023-07-31T00:28:53;4.93;;;3.80;;
1837;SDS011;918;50.796;6.772;2023-07-31T00:31:18;2.97;;;2.60;;
1837;SDS011;918;50.796;6.772;2023-07-31T00:33:43;6.47;;;2.60;;
1837;SDS011;918;50.796;6.772;2023-07-31T00:36:08;2.70;;;2.20;;
1837;SDS011;918;50.796;6.772;2023-07-31T00:38:34;2.80;;;2.53;;
1837;SDS011;918;50.796;6.772;2023-07-31T00:40:59;4.00;;;3.60;;
1837;SDS011;918;50.796;6.772;2023-07-31T00:43:24;3.90;;;2.93;;
1837;SDS011;918;50.796;6.772;2023-07-31T00:45:50;4.20;;;2.90;;
1837;SDS011;918;50.796;6.772;2023-07-31T00:48:15;4.47;;;2.97;;
1837;SDS011;918;50.796;6.772;2023-07-31T00:50:40;4.80;;;2.47;;
1837;SDS011;918;50.796;6.772;2023-07-31T00:53:06;4.27;;;3.50;;
1837;SDS011;918;50.796;6.772;2023-07-31T00:55:31;4.90;;;2.80;;
1837;SDS011;918;50.796;6.772;2023-07-31T00:57:56;2.97;;;2.70;;
1837;SDS011;918;50.796;6.772;2023-07-31T01:00:22;4.67;;;2.70;;
1837;SDS011;918;50.796;6.772;2023-07-31T01:02:48;3.03;;;2.30;;
1837;SDS011;918;50.796;6.772;2023-07-31T01:05:14;3.50;;;2.50;;
1837;SDS011;918;50.796;6.772;2023-07-31T01:07:42;4.17;;;2.63;;
1837;SDS011;918;50.796;6.772;2023-07-31T01:12:36;3.27;;;2.97;;
1837;SDS011;918;50.796;6.772;2023-07-31T01:17:29;4.73;;;3.27;;
1837;SDS011;918;50.796;6.772;2023-07-31T01:19:55;4.30;;;2.90;;
1837;SDS011;918;50.796;6.772;2023-07-31T01:25:10;2.60;;;2.20;;
1837;SDS011;918;50.796;6.772;2023-07-31T01:31:07;2.77;;;2.00;;
1837;SDS011;918;50.796;6.772;2023-07-31T01:33:32;3.20;;;2.20;;
1837;SDS011;918;50.796;6.772;2023-07-31T01:35:58;3.70;;;2.53;;
1837;SDS011;918;50.796;6.772;2023-07-31T01:38:24;2.93;;;2.63;;
1837;SDS011;918;50.796;6.772;2023-07-31T01:40:52;3.90;;;2.73;;
1837;SDS011;918;50.796;6.772;2023-07-31T01:43:18;2.90;;;2.70;;
1837;SDS011;918;50.796;6.772;2023-07-31T01:45:43;3.20;;;2.80;;
1837;SDS011;918;50.796;6.772;2023-07-31T01:48:09;3.90;;;2.90;;
1837;SDS011;918;50.796;6.772;2023-07-31T01:50:34;4.00;;;3.50;;
1837;SDS011;918;50.796;6.772;2023-07-31T01:52:59;5.77;;;2.83;;
1837;SDS011;918;50.796;6.772;2023-07-31T01:55:24;3.30;;;2.70;;
1837;SDS011;918;50.796;6.772;2023-07-31T01:57:50;3.80;;;2.90;;
1837;SDS011;918;50.796;6.772;2023-07-31T02:00:15;2.73;;;2.40;;
1837;SDS011;918;50.796;6.772;2023-07-31T02:02:40;6.30;;;3.00;;
1837;SDS011;918;50.796;6.772;2023-07-31T02:05:06;5.80;;;3.00;;
1837;SDS011;918;50.796;6.772;2023-07-31T02:07:31;3.53;;;2.50;;
1837;SDS011;918;50.796;6.772;2023-07-31T02:09:56;6.70;;;3.60;;
1837;SDS011;918;50.796;6.772;2023-07-31T02:12:22;6.83;;;3.93;;
1837;SDS011;918;50.796;6.772;2023-07-31T02:14:47;4.77;;;2.97;;
1837;SDS011;918;50.796;6.772;2023-07-31T02:17:12;4.37;;;3.07;;
1837;SDS011;918;50.796;6.772;2023-07-31T02:19:37;3.83;;;2.70;;
1837;SDS011;918;50.796;6.772;2023-07-31T02:22:03;4.27;;;3.70;;
1837;SDS011;918;50.796;6.772;2023-07-31T02:24:28;4.30;;;3.20;;
1837;SDS011;918;50.796;6.772;2023-07-31T02:26:53;5.13;;;3.03;;
1837;SDS011;918;50.796;6.772;2023-07-31T02:29:18;3.70;;;2.63;;
1837;SDS011;918;50.796;6.772;2023-07-31T02:31:44;4.37;;;3.80;;
1837;SDS011;918;50.796;6.772;2023-07-31T02:34:09;4.33;;;3.80;;
1837;SDS011;918;50.796;6.772;2023-07-31T02:36:34;4.83;;;4.00;;
1837;SDS011;918;50.796;6.772;2023-07-31T02:38:59;4.97;;;2.70;;
1837;SDS011;918;50.796;6.772;2023-07-31T02:41:25;5.70;;;3.83;;
1837;SDS011;918;50.796;6.772;2023-07-31T02:43:50;3.87;;;3.10;;
1837;SDS011;918;50.796;6.772;2023-07-31T02:46:15;6.70;;;3.87;;
1837;SDS011;918;50.796;6.772;2023-07-31T02:48:40;3.70;;;3.30;;
1837;SDS011;918;50.796;6.772;2023-07-31T02:51:06;6.70;;;3.37;;
1837;SDS011;918;50.796;6.772;2023-07-31T02:53:31;3.90;;;3.00;;
1837;SDS011;918;50.796;6.772;2023-07-31T02:55:56;5.70;;;3.70;;
1837;SDS011;918;50.796;6.772;2023-07-31T02:58:21;3.90;;;3.50;;
1837;SDS011;918;50.796;6.772;2023-07-31T03:00:47;4.83;;;3.20;;
1837;SDS011;918;50.796;6.772;2023-07-31T03:03:12;6.10;;;3.30;;
1837;SDS011;918;50.796;6.772;2023-07-31T03:05:37;4.37;;;3.43;;
1837;SDS011;918;50.796;6.772;2023-07-31T03:08:02;5.00;;;3.87;;
1837;SDS011;918;50.796;6.772;2023-07-31T03:10:28;4.07;;;3.27;;
1837;SDS011;918;50.796;6.772;2023-07-31T03:12:54;4.23;;;3.40;;
1837;SDS011;918;50.796;6.772;2023-07-31T03:15:19;3.70;;;3.00;;
1837;SDS011;918;50.796;6.772;2023-07-31T03:17:44;4.93;;;3.20;;
1837;SDS011;918;50.796;6.772;2023-07-31T03:20:09;5.20;;;3.40;;
1837;SDS011;918;50.796;6.772;2023-07-31T03:22:35;5.07;;;3.53;;
1837;SDS011;918;50.796;6.772;2023-07-31T03:25:03;5.90;;;3.37;;
1837;SDS011;918;50.796;6.772;2023-07-31T03:27:29;7.10;;;3.00;;
1837;SDS011;918;50.796;6.772;2023-07-31T03:29:54;5.67;;;3.90;;
1837;SDS011;918;50.796;6.772;2023-07-31T03:32:20;4.13;;;3.67;;
1837;SDS011;918;50.796;6.772;2023-07-31T03:34:45;4.63;;;4.07;;
1837;SDS011;918;50.796;6.772;2023-07-31T03:37:10;4.90;;;4.50;;
1837;SDS011;918;50.796;6.772;2023-07-31T03:39:36;5.10;;;3.13;;
1837;SDS011;918;50.796;6.772;2023-07-31T03:42:01;4.93;;;3.30;;
1837;SDS011;918;50.796;6.772;2023-07-31T03:44:26;5.10;;;3.10;;
1837;SDS011;918;50.796;6.772;2023-07-31T03:46:51;5.50;;;4.90;;
1837;SDS011;918;50.796;6.772;2023-07-31T03:49:17;6.43;;;3.70;;
1837;SDS011;918;50.796;6.772;2023-07-31T03:51:42;4.37;;;3.47;;
1837;SDS011;918;50.796;6.772;2023-07-31T03:54:07;5.00;;;3.90;;
1837;SDS011;918;50.796;6.772;2023-07-31T03:56:33;4.50;;;3.57;;
1837;SDS011;918;50.796;6.772;2023-07-31T03:58:58;5.93;;;3.33;;
1837;SDS011;918;50.796;6.772;2023-07-31T04:01:23;4.57;;;3.47;;
1837;SDS011;918;50.796;6.772;2023-07-31T04:03:49;4.30;;;3.90;;
1837;SDS011;918;50.796;6.772;2023-07-31T04:06:14;5.27;;;3.97;;
1837;SDS011;918;50.796;6.772;2023-07-31T04:08:42;4.07;;;3.67;;
1837;SDS011;918;50.796;6.772;2023-07-31T04:11:08;5.37;;;3.80;;
1837;SDS011;918;50.796;6.772;2023-07-31T04:13:33;4.17;;;3.80;;
1837;SDS011;918;50.796;6.772;2023-07-31T04:15:58;3.83;;;3.47;;
1837;SDS011;918;50.796;6.772;2023-07-31T04:18:24;6.90;;;4.40;;
1837;SDS011;918;50.796;6.772;2023-07-31T04:20:50;4.10;;;3.80;;
1837;SDS011;918;50.796;6.772;2023-07-31T04:23:15;5.30;;;4.40;;
1837;SDS011;918;50.796;6.772;2023-07-31T04:25:40;4.97;;;4.13;;
1837;SDS011;918;50.796;6.772;2023-07-31T04:28:06;3.63;;;3.33;;
1837;SDS011;918;50.796;6.772;2023-07-31T04:30:32;3.60;;;3.40;;
1837;SDS011;918;50.796;6.772;2023-07-31T04:32:57;5.00;;;4.53;;
1837;SDS011;918;50.796;6.772;2023-07-31T04:35:22;4.83;;;4.27;;
1837;SDS011;918;50.796;6.772;2023-07-31T04:37:48;3.97;;;3.67;;
1837;SDS011;918;50.796;6.772;2023-07-31T04:40:14;4.40;;;3.47;;
1837;SDS011;918;50.796;6.772;2023-07-31T04:42:40;4.37;;;3.97;;
1837;SDS011;918;50.796;6.772;2023-07-31T04:45:05;6.43;;;4.07;;
1837;SDS011;918;50.796;6.772;2023-07-31T04:47:32;4.60;;;4.20;;
1837;SDS011;918;50.796;6.772;2023-07-31T04:49:57;3.67;;;3.40;;
1837;SDS011;918;50.796;6.772;2023-07-31T04:52:23;4.60;;;3.80;;
1837;SDS011;918;50.796;6.772;2023-07-31T04:54:48;4.87;;;4.03;;
1837;SDS011;918;50.796;6.772;2023-07-31T04:57:14;7.93;;;4.30;;
1837;SDS011;918;50.796;6.772;2023-07-31T04:59:39;4.23;;;3.83;;
1837;SDS011;918;50.796;6.772;2023-07-31T05:02:04;3.80;;;3.50;;
1837;SDS011;918;50.796;6.772;2023-07-31T05:04:30;4.53;;;4.10;;
1837;SDS011;918;50.796;6.772;2023-07-31T05:06:55;4.13;;;3.73;;
1837;SDS011;918;50.796;6.772;2023-07-31T05:09:20;4.77;;;3.33;;
1837;SDS011;918;50.796;6.772;2023-07-31T05:11:45;4.20;;;3.60;;
1837;SDS011;918;50.796;6.772;2023-07-31T05:14:11;4.97;;;3.80;;
1837;SDS011;918;50.796;6.772;2023-07-31T05:16:36;4.40;;;4.00;;
1837;SDS011;918;50.796;6.772;2023-07-31T05:19:01;5.40;;;3.80;;
1837;SDS011;918;50.796;6.772;2023-07-31T05:21:26;3.90;;;3.60;;
1837;SDS011;918;50.796;6.772;2023-07-31T05:23:52;4.37;;;3.93;;
1837;SDS011;918;50.796;6.772;2023-07-31T05:26:18;4.63;;;3.63;;
1837;SDS011;918;50.796;6.772;2023-07-31T05:28:43;3.60;;;3.30;;
1837;SDS011;918;50.796;6.772;2023-07-31T05:31:08;4.10;;;3.70;;
1837;SDS011;918;50.796;6.772;2023-07-31T05:33:33;4.00;;;3.70;;
1837;SDS011;918;50.796;6.772;2023-07-31T05:35:59;4.77;;;4.17;;
1837;SDS011;918;50.796;6.772;2023-07-31T05:38:24;4.13;;;3.77;;
1837;SDS011;918;50.796;6.772;2023-07-31T05:40:49;3.97;;;3.57;;
1837;SDS011;918;50.796;6.772;2023-07-31T05:43:15;4.90;;;4.00;;
1837;SDS011;918;50.796;6.772;2023-07-31T05:45:41;4.37;;;3.77;;
1837;SDS011;918;50.796;6.772;2023-07-31T05:48:07;3.40;;;3.20;;
1837;SDS011;918;50.796;6.772;2023-07-31T05:50:32;4.60;;;3.67;;
1837;SDS011;918;50.796;6.772;2023-07-31T05:52:57;4.33;;;4.03;;
1837;SDS011;918;50.796;6.772;2023-07-31T05:55:23;3.93;;;3.53;;
1837;SDS011;918;50.796;6.772;2023-07-31T05:57:51;3.50;;;3.20;;
1837;SDS011;918;50.796;6.772;2023-07-31T06:00:17;4.93;;;3.53;;
1837;SDS011;918;50.796;6.772;2023-07-31T06:02:42;6.67;;;3.47;;
1837;SDS011;918;50.796;6.772;2023-07-31T06:07:42;3.83;;;3.47;;
1837;SDS011;918;50.796;6.772;2023-07-31T06:10:07;4.47;;;3.80;;
1837;SDS011;918;50.796;6.772;2023-07-31T06:12:33;5.07;;;4.40;;
1837;SDS011;918;50.796;6.772;2023-07-31T06:17:26;4.50;;;3.40;;
1837;SDS011;918;50.796;6.772;2023-07-31T06:19:52;5.07;;;3.20;;
1837;SDS011;918;50.796;6.772;2023-07-31T06:22:17;6.23;;;3.97;;
1837;SDS011;918;50.796;6.772;2023-07-31T06:24:43;4.50;;;4.07;;
1837;SDS011;918;50.796;6.772;2023-07-31T06:27:08;4.23;;;3.57;;
1837;SDS011;918;50.796;6.772;2023-07-31T06:29:34;4.87;;;4.40;;
1837;SDS011;918;50.796;6.772;2023-07-31T06:31:59;5.53;;;4.47;;
1837;SDS011;918;50.796;6.772;2023-07-31T06:34:25;4.67;;;4.23;;
1837;SDS011;918;50.796;6.772;2023-07-31T06:36:50;8.57;;;5.03;;
1837;SDS011;918;50.796;6.772;2023-07-31T06:39:15;5.40;;;4.83;;
1837;SDS011;918;50.796;6.772;2023-07-31T06:41:41;9.40;;;5.10;;
1837;SDS011;918;50.796;6.772;2023-07-31T06:44:07;5.20;;;4.50;;
1837;SDS011;918;50.796;6.772;2023-07-31T06:46:33;6.10;;;5.47;;
1837;SDS011;918;50.796;6.772;2023-07-31T06:48:58;6.00;;;4.50;;
1837;SDS011;918;50.796;6.772;2023-07-31T06:51:23;4.53;;;4.20;;
1837;SDS011;918;50.796;6.772;2023-07-31T06:53:48;4.50;;;4.10;;
1837;SDS011;918;50.796;6.772;2023-07-31T06:56:14;4.97;;;4.00;;
1837;SDS011;918;50.796;6.772;2023-07-31T06:58:39;5.00;;;4.40;;
1837;SDS011;918;50.796;6.772;2023-07-31T07:01:04;5.33;;;4.73;;
1837;SDS011;918;50.796;6.772;2023-07-31T07:03:30;7.33;;;5.33;;
1837;SDS011;918;50.796;6.772;2023-07-31T07:05:55;4.97;;;4.23;;
1837;SDS011;918;50.796;6.772;2023-07-31T07:08:20;3.37;;;3.10;;
1837;SDS011;918;50.796;6.772;2023-07-31T07:10:46;7.00;;;3.63;;
1837;SDS011;918;50.796;6.772;2023-07-31T07:13:11;4.17;;;3.17;;
1837;SDS011;918;50.796;6.772;2023-07-31T07:15:38;5.43;;;3.60;;
1837;SDS011;918;50.796;6.772;2023-07-31T07:18:03;5.20;;;4.10;;
1837;SDS011;918;50.796;6.772;2023-07-31T07:20:28;4.70;;;3.80;;
1837;SDS011;918;50.796;6.772;2023-07-31T07:22:54;5.73;;;4.23;;
1837;SDS011;918;50.796;6.772;2023-07-31T07:25:19;4.23;;;3.57;;
1837;SDS011;918;50.796;6.772;2023-07-31T07:27:44;3.43;;;2.80;;
1837;SDS011;918;50.796;6.772;2023-07-31T07:30:09;5.30;;;3.73;;
1837;SDS011;918;50.796;6.772;2023-07-31T07:32:35;4.40;;;3.90;;
1837;SDS011;918;50.796;6.772;2023-07-31T07:35:00;6.67;;;4.07;;
1837;SDS011;918;50.796;6.772;2023-07-31T07:37:28;3.73;;;3.20;;
1837;SDS011;918;50.796;6.772;2023-07-31T07:39:54;3.50;;;3.20;;
1837;SDS011;918;50.796;6.772;2023-07-31T07:42:19;4.13;;;3.73;;
1837;SDS011;918;50.796;6.772;2023-07-31T07:44:44;3.43;;;3.13;;
1837;SDS011;918;50.796;6.772;2023-07-31T07:47:10;4.50;;;3.37;;
1837;SDS011;918;50.796;6.772;2023-07-31T07:49:35;3.30;;;3.00;;
1837;SDS011;918;50.796;6.772;2023-07-31T07:52:00;3.50;;;3.20;;
1837;SDS011;918;50.796;6.772;2023-07-31T07:54:26;3.90;;;3.10;;
1837;SDS011;918;50.796;6.772;2023-07-31T07:56:52;3.23;;;3.00;;
1837;SDS011;918;50.796;6.772;2023-07-31T07:59:17;2.53;;;2.33;;
1837;SDS011;918;50.796;6.772;2023-07-31T08:01:42;3.20;;;2.43;;
1837;SDS011;918;50.796;6.772;2023-07-31T08:04:08;3.90;;;2.50;;
1837;SDS011;918;50.796;6.772;2023-07-31T08:06:33;2.77;;;2.57;;
1837;SDS011;918;50.796;6.772;2023-07-31T08:08:59;6.90;;;3.00;;
1837;SDS011;918;50.796;6.772;2023-07-31T08:11:24;2.90;;;2.60;;
1837;SDS011;918;50.796;6.772;2023-07-31T08:13:49;2.70;;;2.50;;
1837;SDS011;918;50.796;6.772;2023-07-31T08:16:15;4.83;;;2.87;;
1837;SDS011;918;50.796;6.772;2023-07-31T08:18:40;2.77;;;2.57;;
1837;SDS011;918;50.796;6.772;2023-07-31T08:21:07;2.53;;;2.30;;
1837;SDS011;918;50.796;6.772;2023-07-31T08:23:32;3.37;;;2.73;;
1837;SDS011;918;50.796;6.772;2023-07-31T08:25:58;2.70;;;2.50;;
1837;SDS011;918;50.796;6.772;2023-07-31T08:28:23;2.43;;;2.23;;
1837;SDS011;918;50.796;6.772;2023-07-31T08:30:48;3.17;;;2.87;;
1837;SDS011;918;50.796;6.772;2023-07-31T08:33:15;3.33;;;2.70;;
1837;SDS011;918;50.796;6.772;2023-07-31T08:35:40;3.37;;;2.70;;
1837;SDS011;918;50.796;6.772;2023-07-31T08:38:05;2.83;;;2.30;;
1837;SDS011;918;50.796;6.772;2023-07-31T08:40:31;4.53;;;2.60;;
1837;SDS011;918;50.796;6.772;2023-07-31T08:42:56;2.43;;;2.23;;
1837;SDS011;918;50.796;6.772;2023-07-31T08:45:22;2.80;;;2.60;;
1837;SDS011;918;50.796;6.772;2023-07-31T08:47:48;2.50;;;2.30;;
1837;SDS011;918;50.796;6.772;2023-07-31T08:50:14;2.43;;;2.23;;
1837;SDS011;918;50.796;6.772;2023-07-31T08:52:41;2.83;;;2.13;;
1837;SDS011;918;50.796;6.772;2023-07-31T08:55:07;2.10;;;2.00;;
1837;SDS011;918;50.796;6.772;2023-07-31T08:57:33;2.20;;;2.00;;
1837;SDS011;918;50.796;6.772;2023-07-31T08:59:59;2.80;;;2.30;;
1837;SDS011;918;50.796;6.772;2023-07-31T09:02:25;5.30;;;2.60;;
1837;SDS011;918;50.796;6.772;2023-07-31T09:04:56;4.00;;;2.80;;
1837;SDS011;918;50.796;6.772;2023-07-31T09:07:22;2.70;;;2.50;;
1837;SDS011;918;50.796;6.772;2023-07-31T09:09:47;2.23;;;2.07;;
1837;SDS011;918;50.796;6.772;2023-07-31T09:12:12;3.67;;;2.37;;
1837;SDS011;918;50.796;6.772;2023-07-31T09:14:37;4.00;;;2.70;;
1837;SDS011;918;50.796;6.772;2023-07-31T09:17:03;2.40;;;2.20;;
1837;SDS011;918;50.796;6.772;2023-07-31T09:19:33;2.53;;;2.33;;
1837;SDS011;918;50.796;6.772;2023-07-31T09:22:01;2.40;;;2.20;;
1837;SDS011;918;50.796;6.772;2023-07-31T09:24:28;2.40;;;2.20;;
1837;SDS011;918;50.796;6.772;2023-07-31T09:26:54;2.50;;;2.30;;
1837;SDS011;918;50.796;6.772;2023-07-31T09:29:21;2.87;;;2.30;;
1837;SDS011;918;50.796;6.772;2023-07-31T09:31:46;4.73;;;2.43;;
1837;SDS011;918;50.796;6.772;2023-07-31T09:34:12;2.10;;;1.90;;
1837;SDS011;918;50.796;6.772;2023-07-31T09:36:42;2.40;;;2.20;;
1837;SDS011;918;50.796;6.772;2023-07-31T09:39:09;3.27;;;2.97;;
1837;SDS011;918;50.796;6.772;2023-07-31T09:41:54;3.57;;;2.20;;
1837;SDS011;918;50.796;6.772;2023-07-31T09:44:19;3.17;;;2.70;;
1837;SDS011;918;50.796;6.772;2023-07-31T09:46:45;2.73;;;2.53;;
1837;SDS011;918;50.796;6.772;2023-07-31T09:49:11;2.50;;;2.30;;
1837;SDS011;918;50.796;6.772;2023-07-31T09:51:38;2.10;;;2.00;;
1837;SDS011;918;50.796;6.772;2023-07-31T09:54:13;4.23;;;2.70;;
1837;SDS011;918;50.796;6.772;2023-07-31T09:56:48;2.50;;;2.30;;
1837;SDS011;918;50.796;6.772;2023-07-31T09:59:15;2.83;;;2.57;;
1837;SDS011;918;50.796;6.772;2023-07-31T10:01:42;2.53;;;2.27;;
1837;SDS011;918;50.796;6.772;2023-07-31T10:04:08;4.27;;;3.73;;
1837;SDS011;918;50.796;6.772;2023-07-31T10:06:35;2.43;;;2.33;;
1837;SDS011;918;50.796;6.772;2023-07-31T10:09:01;3.33;;;2.30;;
1837;SDS011;918;50.796;6.772;2023-07-31T10:11:28;2.57;;;2.37;;
1837;SDS011;918;50.796;6.772;2023-07-31T10:13:55;2.90;;;2.40;;
1837;SDS011;918;50.796;6.772;2023-07-31T10:16:20;5.90;;;2.60;;
1837;SDS011;918;50.796;6.772;2023-07-31T10:18:46;2.90;;;2.60;;
1837;SDS011;918;50.796;6.772;2023-07-31T10:21:12;4.17;;;2.70;;
1837;SDS011;918;50.796;6.772;2023-07-31T10:23:39;2.50;;;2.20;;
1837;SDS011;918;50.796;6.772;2023-07-31T10:26:05;2.30;;;2.10;;
1837;SDS011;918;50.796;6.772;2023-07-31T10:28:32;2.97;;;2.50;;
1837;SDS011;918;50.796;6.772;2023-07-31T10:30:57;3.20;;;1.77;;
1837;SDS011;918;50.796;6.772;2023-07-31T10:33:23;3.07;;;1.77;;
1837;SDS011;918;50.796;6.772;2023-07-31T10:35:48;2.53;;;2.20;;
1837;SDS011;918;50.796;6.772;2023-07-31T10:38:13;1.80;;;1.70;;
1837;SDS011;918;50.796;6.772;2023-07-31T10:40:39;2.70;;;1.70;;
1837;SDS011;918;50.796;6.772;2023-07-31T10:43:05;1.37;;;1.27;;
1837;SDS011;918;50.796;6.772;2023-07-31T10:45:37;1.33;;;1.23;;
1837;SDS011;918;50.796;6.772;2023-07-31T10:48:04;2.00;;;1.47;;
1837;SDS011;918;50.796;6.772;2023-07-31T10:50:31;1.30;;;1.20;;
1837;SDS011;918;50.796;6.772;2023-07-31T10:53:00;1.70;;;1.60;;
1837;SDS011;918;50.796;6.772;2023-07-31T10:55:41;1.50;;;1.10;;
1837;SDS011;918;50.796;6.772;2023-07-31T10:58:09;1.60;;;1.50;;
1837;SDS011;918;50.796;6.772;2023-07-31T11:00:47;1.00;;;1.00;;
1837;SDS011;918;50.796;6.772;2023-07-31T11:03:19;1.30;;;1.20;;
1837;SDS011;918;50.796;6.772;2023-07-31T11:08:25;2.07;;;1.10;;
1837;SDS011;918;50.796;6.772;2023-07-31T11:13:30;1.80;;;1.30;;
1837;SDS011;918;50.796;6.772;2023-07-31T11:16:23;1.07;;;0.97;;
1837;SDS011;918;50.796;6.772;2023-07-31T11:18:49;3.07;;;1.20;;
1837;SDS011;918;50.796;6.772;2023-07-31T11:21:19;0.90;;;0.90;;
1837;SDS011;918;50.796;6.772;2023-07-31T11:23:46;0.70;;;0.70;;
1837;SDS011;918;50.796;6.772;2023-07-31T11:26:12;1.33;;;1.23;;
1837;SDS011;918;50.796;6.772;2023-07-31T11:28:37;1.10;;;1.00;;
1837;SDS011;918;50.796;6.772;2023-07-31T11:31:03;1.30;;;1.20;;
1837;SDS011;918;50.796;6.772;2023-07-31T11:33:29;1.43;;;1.33;;
1837;SDS011;918;50.796;6.772;2023-07-31T11:35:54;1.03;;;0.73;;
1837;SDS011;918;50.796;6.772;2023-07-31T11:38:29;2.10;;;1.17;;
1837;SDS011;918;50.796;6.772;2023-07-31T11:40:57;2.70;;;1.30;;
1837;SDS011;918;50.796;6.772;2023-07-31T11:43:23;0.80;;;0.80;;
1837;SDS011;918;50.796;6.772;2023-07-31T11:45:49;0.90;;;0.90;;
1837;SDS011;918;50.796;6.772;2023-07-31T11:48:34;0.97;;;0.97;;
1837;SDS011;918;50.796;6.772;2023-07-31T11:51:02;2.80;;;0.90;;
1837;SDS011;918;50.796;6.772;2023-07-31T11:56:05;1.00;;;0.80;;
1837;SDS011;918;50.796;6.772;2023-07-31T11:58:31;1.10;;;0.80;;
1837;SDS011;918;50.796;6.772;2023-07-31T12:00:57;1.30;;;1.20;;
1837;SDS011;918;50.796;6.772;2023-07-31T12:03:23;1.03;;;1.03;;
1837;SDS011;918;50.796;6.772;2023-07-31T12:05:48;1.60;;;1.50;;
1837;SDS011;918;50.796;6.772;2023-07-31T12:08:13;1.37;;;1.27;;
1837;SDS011;918;50.796;6.772;2023-07-31T12:10:39;1.40;;;1.30;;
1837;SDS011;918;50.796;6.772;2023-07-31T12:13:11;1.70;;;1.60;;
1837;SDS011;918;50.796;6.772;2023-07-31T12:15:42;1.67;;;1.57;;
1837;SDS011;918;50.796;6.772;2023-07-31T12:18:09;1.67;;;1.57;;
1837;SDS011;918;50.796;6.772;2023-07-31T12:20:39;1.70;;;1.60;;
1837;SDS011;918;50.796;6.772;2023-07-31T12:23:12;2.63;;;2.00;;
1837;SDS011;918;50.796;6.772;2023-07-31T12:25:39;1.70;;;1.60;;
1837;SDS011;918;50.796;6.772;2023-07-31T12:28:04;2.07;;;1.73;;
1837;SDS011;918;50.796;6.772;2023-07-31T12:30:32;2.00;;;1.80;;
1837;SDS011;918;50.796;6.772;2023-07-31T12:33:12;2.20;;;1.67;;
1837;SDS011;918;50.796;6.772;2023-07-31T12:35:40;2.10;;;2.00;;
1837;SDS011;918;50.796;6.772;2023-07-31T12:38:07;4.23;;;2.37;;
1837;SDS011;918;50.796;6.772;2023-07-31T12:40:32;3.00;;;2.70;;
1837;SDS011;918;50.796;6.772;2023-07-31T12:43:00;2.77;;;2.57;;
1837;SDS011;918;50.796;6.772;2023-07-31T12:45:27;2.63;;;2.43;;
1837;SDS011;918;50.796;6.772;2023-07-31T12:47:52;3.17;;;2.87;;
1837;SDS011;918;50.796;6.772;2023-07-31T12:50:18;3.10;;;2.80;;
1837;SDS011;918;50.796;6.772;2023-07-31T12:52:43;3.20;;;3.00;;
1837;SDS011;918;50.796;6.772;2023-07-31T12:55:08;2.97;;;2.77;;
1837;SDS011;918;50.796;6.772;2023-07-31T12:57:35;2.93;;;2.63;;
1837;SDS011;918;50.796;6.772;2023-07-31T13:00:01;3.00;;;2.80;;
1837;SDS011;918;50.796;6.772;2023-07-31T13:02:26;3.17;;;2.97;;
1837;SDS011;918;50.796;6.772;2023-07-31T13:04:52;3.03;;;2.83;;
1837;SDS011;918;50.796;6.772;2023-07-31T13:07:19;4.20;;;3.13;;
1837;SDS011;918;50.796;6.772;2023-07-31T13:09:44;3.60;;;3.30;;
1837;SDS011;918;50.796;6.772;2023-07-31T13:12:09;3.27;;;2.97;;
1837;SDS011;918;50.796;6.772;2023-07-31T13:14:35;3.40;;;2.50;;
1837;SDS011;918;50.796;6.772;2023-07-31T13:17:00;2.77;;;2.57;;
1837;SDS011;918;50.796;6.772;2023-07-31T13:19:25;2.70;;;2.50;;
1837;SDS011;918;50.796;6.772;2023-07-31T13:21:50;2.63;;;2.40;;
1837;SDS011;918;50.796;6.772;2023-07-31T13:24:16;2.30;;;2.10;;
1837;SDS011;918;50.796;6.772;2023-07-31T13:26:41;2.37;;;2.17;;
1837;SDS011;918;50.796;6.772;2023-07-31T13:29:06;3.33;;;2.30;;
1837;SDS011;918;50.796;6.772;2023-07-31T13:31:31;2.40;;;2.30;;
1837;SDS011;918;50.796;6.772;2023-07-31T13:33:56;3.17;;;2.97;;
1837;SDS011;918;50.796;6.772;2023-07-31T13:36:22;2.73;;;2.53;;
1837;SDS011;918;50.796;6.772;2023-07-31T13:38:47;2.43;;;2.23;;
1837;SDS011;918;50.796;6.772;2023-07-31T13:41:12;2.33;;;2.13;;
1837;SDS011;918;50.796;6.772;2023-07-31T13:43:38;2.40;;;2.23;;
1837;SDS011;918;50.796;6.772;2023-07-31T13:46:03;1.80;;;1.70;;
1837;SDS011;918;50.796;6.772;2023-07-31T13:48:32;2.30;;;2.20;;
1837;SDS011;918;50.796;6.772;2023-07-31T13:50:59;3.77;;;2.33;;
1837;SDS011;918;50.796;6.772;2023-07-31T13:53:24;2.70;;;2.50;;
1837;SDS011;918;50.796;6.772;2023-07-31T13:55:49;2.63;;;2.43;;
1837;SDS011;918;50.796;6.772;2023-07-31T13:58:15;3.20;;;2.43;;
1837;SDS011;918;50.796;6.772;2023-07-31T14:00:40;2.87;;;2.67;;
1837;SDS011;918;50.796;6.772;2023-07-31T14:03:05;11.73;;;4.00;;
1837;SDS011;918;50.796;6.772;2023-07-31T14:05:30;6.07;;;3.60;;
1837;SDS011;918;50.796;6.772;2023-07-31T14:07:56;5.00;;;2.73;;
1837;SDS011;918;50.796;6.772;2023-07-31T14:10:21;2.60;;;2.40;;
1837;SDS011;918;50.796;6.772;2023-07-31T14:12:47;2.70;;;2.47;;
1837;SDS011;918;50.796;6.772;2023-07-31T14:15:12;2.97;;;2.77;;
1837;SDS011;918;50.796;6.772;2023-07-31T14:17:37;2.70;;;2.50;;
1837;SDS011;918;50.796;6.772;2023-07-31T14:20:03;3.27;;;2.97;;
1837;SDS011;918;50.796;6.772;2023-07-31T14:22:29;2.53;;;2.33;;
1837;SDS011;918;50.796;6.772;2023-07-31T14:24:55;3.00;;;2.50;;
1837;SDS011;918;50.796;6.772;2023-07-31T14:27:20;2.43;;;2.13;;
1837;SDS011;918;50.796;6.772;2023-07-31T14:29:45;4.03;;;2.13;;
1837;SDS011;918;50.796;6.772;2023-07-31T14:32:10;2.73;;;2.53;;
1837;SDS011;918;50.796;6.772;2023-07-31T14:34:36;2.70;;;2.50;;
1837;SDS011;918;50.796;6.772;2023-07-31T14:37:01;2.60;;;2.40;;
1837;SDS011;918;50.796;6.772;2023-07-31T14:39:26;3.27;;;3.00;;
1837;SDS011;918;50.796;6.772;2023-07-31T14:41:51;3.03;;;2.83;;
1837;SDS011;918;50.796;6.772;2023-07-31T14:44:17;3.63;;;3.00;;
1837;SDS011;918;50.796;6.772;2023-07-31T14:46:42;2.80;;;2.60;;
1837;SDS011;918;50.796;6.772;2023-07-31T14:49:07;3.97;;;3.67;;
1837;SDS011;918;50.796;6.772;2023-07-31T14:51:32;3.40;;;3.07;;
1837;SDS011;918;50.796;6.772;2023-07-31T14:53:58;3.53;;;3.33;;
1837;SDS011;918;50.796;6.772;2023-07-31T14:56:23;2.90;;;2.70;;
1837;SDS011;918;50.796;6.772;2023-07-31T14:58:48;3.17;;;2.83;;
1837;SDS011;918;50.796;6.772;2023-07-31T15:01:14;3.20;;;2.90;;
1837;SDS011;918;50.796;6.772;2023-07-31T15:03:39;3.77;;;3.47;;
1837;SDS011;918;50.796;6.772;2023-07-31T15:06:04;3.53;;;3.23;;
1837;SDS011;918;50.796;6.772;2023-07-31T15:08:31;3.27;;;3.00;;
1837;SDS011;918;50.796;6.772;2023-07-31T15:10:56;3.73;;;3.40;;
1837;SDS011;918;50.796;6.772;2023-07-31T15:13:22;3.13;;;2.93;;
1837;SDS011;918;50.796;6.772;2023-07-31T15:15:48;3.63;;;3.33;;
1837;SDS011;918;50.796;6.772;2023-07-31T15:18:13;3.87;;;3.57;;
1837;SDS011;918;50.796;6.772;2023-07-31T15:20:39;4.00;;;3.70;;
1837;SDS011;918;50.796;6.772;2023-07-31T15:23:04;3.90;;;3.60;;
1837;SDS011;918;50.796;6.772;2023-07-31T15:25:29;4.73;;;4.00;;
1837;SDS011;918;50.796;6.772;2023-07-31T15:27:54;3.93;;;3.53;;
1837;SDS011;918;50.796;6.772;2023-07-31T15:30:20;4.00;;;3.70;;
1837;SDS011;918;50.796;6.772;2023-07-31T15:32:45;3.23;;;2.97;;
1837;SDS011;918;50.796;6.772;2023-07-31T15:35:13;3.53;;;3.27;;
1837;SDS011;918;50.796;6.772;2023-07-31T15:37:38;3.13;;;2.93;;
1837;SDS011;918;50.796;6.772;2023-07-31T15:40:04;3.30;;;3.10;;
1837;SDS011;918;50.796;6.772;2023-07-31T15:42:29;3.37;;;3.13;;
1837;SDS011;918;50.796;6.772;2023-07-31T15:44:55;3.13;;;2.93;;
1837;SDS011;918;50.796;6.772;2023-07-31T15:47:20;3.10;;;2.90;;